Waupun, WI (53963)

5:40 AM CST on January 22, 2017 (GMT -0600)
Waupun behind post office | | Change Station

Elev 892 ft 43.64 °N, 88.73 °W | Updated 36 seconds ago

Fog
Fog
36.5 °F
Feels Like 36 °F
N
0.0
Wind Variable Wind from SW

Today
High -- | Low -- °F
--% Chance of Precip.
Yesterday
High -- | Low -- °F
Precip. -- in
Pressure 29.58 in
Visibility 0.2 miles
Clouds Overcast 300 ft
Windchill 36 °F
Dew Point 36 °F
Humidity 98%
Rainfall 0.00 in
Snow Depth Not available.
7:20 AM 4:53 PM
Waning Crescent, 27% visible
METAR KUNU 221115Z AUTO 21003KT M1/4SM FG OVC003 02/02 A2958 RMK AO2 T00230022
Pressure 29.58 in
Visibility 0.2 miles
Clouds Overcast 300 ft
Windchill 36 °F
Dew Point 36 °F
Humidity 98%
Rainfall 0.00 in
Snow Depth Not available.
7:20 AM 4:53 PM
Waning Crescent, 27% visible
METAR KUNU 221115Z AUTO 21003KT M1/4SM FG OVC003 02/02 A2958 RMK AO2 T00230022

Get Your Daily Forecast Email!

Thanks for signing up!

Be on the lookout for a verification email in your inbox.

You'll start receiving the daily forecast at 8 AM.

×

10-Day Weather Forecast

Almanac

Astronomy

Jan. 22, 2017 Rise Set
Actual Time
Civil Twilight
Nautical Twilight
Astronomical Twilight
Moon
Length of Visible Light
Length of Day
Tomorrow will be .
, % of the Moon is Illuminated

Today's Extremes

State Highs State Lows

Community

WunderPhotos

Upload Photos

1,962,540 photos uploaded!

WunderBlog® & News

Nearby

Air Quality

  Air Quality AQ Index Pollutant
Not available.

Snow Depth

Station Depth Elevation

Earthquake Activity

City Distance Mag. Time & Date
Minimum magnitude displayed is 2.5.

Coastal Water Temperatures

Place Temperature

Stations

Nearby Weather Stations

Station Location Temp. Windchill Dew Point Humidity Wind Precip. Elev Updated Type
                   

Watches & Warnings

Dense Fog Advisory
Issued: 4:02 AM CST Jan. 22, 2017 – National Weather Service

... Dense fog advisory remains in effect until noon CST today...

A dense fog advisory remains in effect until noon CST today.

* Timing... areas of dense fog will persist through this morning.

* Visibility... one quarter mile or less in dense fog.

* Impacts... severely reduced visibility will lead to poor
driving conditions. Slow down and drive with caution.

Precautionary/preparedness actions...

A dense fog advisory means visibilities will frequently be
reduced to less than one quarter mile. If driving... slow down...
use your headlights... and leave plenty of distance ahead of you.





Marine Fog Advisory
Issued: 3:03 AM CST Jan. 22, 2017 – National Weather Service

... Dense fog advisory remains in effect until noon CST today...

* visibility: areas of dense fog will result in visibilities of
one mile or less.

Precautionary/preparedness actions...

A dense fog advisory means visibilities will frequently be
reduced to less than one mile. Inexperienced mariners...
especially those operating smaller vessels should avoid
navigating in these conditions.